createdAt,value
2022-09-25T00:01:14.794Z,85.68
2022-09-25T00:03:42.959Z,85.15
2022-09-25T00:06:14.353Z,84.91
2022-09-25T00:08:42.094Z,84.94
2022-09-25T00:11:12.046Z,84.43
2022-09-25T00:13:42.683Z,84.27
2022-09-25T00:16:12.582Z,87.99
2022-09-25T00:18:58.059Z,91.41
2022-09-25T00:21:30.440Z,89.72
2022-09-25T00:23:58.544Z,88.01
2022-09-25T00:26:28.695Z,87.14
2022-09-25T00:29:01.026Z,86.79
2022-09-25T00:31:29.376Z,86.83
2022-09-25T00:34:00.046Z,85.97
2022-09-25T00:36:28.369Z,86.17
2022-09-25T00:38:58.270Z,85.89
2022-09-25T00:41:29.278Z,86.00
2022-09-25T00:44:02.289Z,85.84
2022-09-25T00:46:32.965Z,86.17
2022-09-25T00:49:03.264Z,89.18
2022-09-25T00:51:38.427Z,91.43
2022-09-25T00:54:07.858Z,93.22
2022-09-25T00:56:40.408Z,91.48
2022-09-25T00:59:12.637Z,89.70
2022-09-25T01:01:42.541Z,90.04
2022-09-25T01:04:13.391Z,89.46
2022-09-25T01:06:41.944Z,88.35
2022-09-25T01:09:09.818Z,89.13
2022-09-25T01:11:39.588Z,89.28
2022-09-25T01:14:11.071Z,88.24
2022-09-25T01:16:45.532Z,87.40
2022-09-25T01:19:27.243Z,87.01
2022-09-25T01:22:01.235Z,87.32
2022-09-25T01:24:43.937Z,87.24
2022-09-25T01:27:31.588Z,86.88
2022-09-25T01:30:06.851Z,87.23
2022-09-25T01:32:46.152Z,86.56
2022-09-25T01:35:19.323Z,86.36
2022-09-25T01:37:55.048Z,88.68
2022-09-25T01:40:29.351Z,87.85
2022-09-25T01:43:06.011Z,87.33
2022-09-25T01:45:40.787Z,87.25
2022-09-25T01:48:10.383Z,87.24
2022-09-25T01:50:44.320Z,86.28
2022-09-25T01:53:17.381Z,86.92
2022-09-25T01:55:49.665Z,87.11
2022-09-25T01:58:23.225Z,86.93
2022-09-25T02:00:59.284Z,87.07
2022-09-25T02:03:32.313Z,86.86
2022-09-25T02:06:02.507Z,86.83
2022-09-25T02:08:40.170Z,86.85
2022-09-25T02:11:09.781Z,86.43
2022-09-25T02:13:43.237Z,86.79
2022-09-25T02:16:17.435Z,86.72
2022-09-25T02:19:03.630Z,86.53
2022-09-25T02:21:43.603Z,86.94
2022-09-25T02:24:20.331Z,86.63
2022-09-25T02:26:49.577Z,86.49
2022-09-25T02:29:17.521Z,86.49
2022-09-25T02:31:53.656Z,86.94
2022-09-25T02:34:22.222Z,86.41
2022-09-25T02:36:52.203Z,86.12
2022-09-25T02:39:23.763Z,85.73
2022-09-25T02:42:07.027Z,85.94
2022-09-25T02:44:43.506Z,85.56
2022-09-25T02:47:24.220Z,85.84
2022-09-25T02:50:00.916Z,86.30
2022-09-25T02:52:34.740Z,85.99
2022-09-25T02:55:07.935Z,86.24
2022-09-25T02:57:43.428Z,85.86
2022-09-25T03:00:13.296Z,85.52
2022-09-25T03:02:49.602Z,88.06
2022-09-25T03:05:19.344Z,88.41
2022-09-25T03:08:06.816Z,87.58
2022-09-25T03:10:37.814Z,86.64
2022-09-25T03:13:16.328Z,86.28
2022-09-25T03:15:47.624Z,86.10
2022-09-25T03:18:17.109Z,85.88
2022-09-25T03:20:45.148Z,86.92
2022-09-25T03:23:12.950Z,88.86
2022-09-25T03:25:42.793Z,88.25
2022-09-25T03:28:13.814Z,88.07
2022-09-25T03:30:42.020Z,87.63
2022-09-25T03:33:10.647Z,87.15
2022-09-25T03:35:40.074Z,86.74
2022-09-25T03:38:08.693Z,86.29
2022-09-25T03:40:38.498Z,86.43
2022-09-25T03:45:33.071Z,86.36
2022-09-25T03:48:03.157Z,86.53
2022-09-25T03:50:33.393Z,86.46
2022-09-25T03:53:02.483Z,86.27
2022-09-25T03:55:30.193Z,86.46
2022-09-25T03:57:57.925Z,86.25
2022-09-25T04:00:27.791Z,85.88
2022-09-25T04:02:59.300Z,85.72
2022-09-25T04:05:27.071Z,85.67
2022-09-25T04:07:54.767Z,85.68
2022-09-25T04:10:23.858Z,85.61
2022-09-25T04:12:54.354Z,86.94
2022-09-25T04:15:23.124Z,90.56
2022-09-25T04:17:52.086Z,90.15
2022-09-25T04:20:20.450Z,89.43
2022-09-25T04:22:48.086Z,89.25
2022-09-25T04:25:18.508Z,88.56
2022-09-25T04:27:51.179Z,87.28
2022-09-25T04:30:19.093Z,86.43
2022-09-25T04:33:04.282Z,86.00
2022-09-25T04:35:32.045Z,85.51
2022-09-25T04:38:00.083Z,85.12
2022-09-25T04:40:28.018Z,85.11
2022-09-25T04:43:00.895Z,84.59
2022-09-25T04:45:30.955Z,84.80
2022-09-25T04:48:01.049Z,84.76
2022-09-25T04:50:29.799Z,84.73
2022-09-25T04:53:03.799Z,84.78
2022-09-25T04:55:31.577Z,84.60
2022-09-25T04:58:02.166Z,84.84
2022-09-25T05:00:31.822Z,84.48
2022-09-25T05:03:00.104Z,84.18
2022-09-25T05:05:30.847Z,84.10
2022-09-25T05:08:00.213Z,84.20
2022-09-25T05:10:29.874Z,84.92
2022-09-25T05:12:58.792Z,85.60
2022-09-25T05:15:29.236Z,84.94
2022-09-25T05:18:04.242Z,85.77
2022-09-25T05:20:32.585Z,84.74
2022-09-25T05:23:03.460Z,85.40
2022-09-25T05:25:33.914Z,84.80
2022-09-25T05:28:03.937Z,84.67
2022-09-25T05:30:35.034Z,84.34
2022-09-25T05:33:02.844Z,85.31
2022-09-25T05:35:32.450Z,85.73
2022-09-25T05:38:00.758Z,85.31
2022-09-25T05:40:28.900Z,85.54
2022-09-25T05:42:57.017Z,85.56
2022-09-25T05:45:24.984Z,85.34
2022-09-25T05:48:03.006Z,85.50
2022-09-25T05:50:32.277Z,85.56
2022-09-25T05:53:00.775Z,85.29
2022-09-25T05:55:31.893Z,85.15
2022-09-25T05:58:03.498Z,84.90
2022-09-25T06:00:33.168Z,85.05
2022-09-25T06:03:02.703Z,84.91
2022-09-25T06:05:31.114Z,84.70
2022-09-25T06:07:58.825Z,84.47
2022-09-25T06:10:29.422Z,84.08
2022-09-25T06:12:59.616Z,85.04
2022-09-25T06:15:30.569Z,85.06
2022-09-25T06:17:58.777Z,85.78
2022-09-25T06:20:28.030Z,85.84
2022-09-25T06:22:56.543Z,85.42
2022-09-25T06:25:29.001Z,85.00
2022-09-25T06:27:58.017Z,84.29
2022-09-25T06:30:27.519Z,84.12
2022-09-25T06:32:58.201Z,83.93
2022-09-25T06:35:25.926Z,84.23
2022-09-25T06:37:58.386Z,84.83
2022-09-25T06:40:27.940Z,84.71
2022-09-25T06:42:59.449Z,84.09
2022-09-25T06:45:28.406Z,84.20
2022-09-25T06:48:01.600Z,84.39
2022-09-25T06:50:33.042Z,84.58
2022-09-25T06:53:02.212Z,84.07
2022-09-25T06:55:32.263Z,83.93
2022-09-25T06:58:02.712Z,84.13
2022-09-25T07:00:30.772Z,84.20
2022-09-25T07:03:15.756Z,85.07
2022-09-25T07:05:44.631Z,84.67
2022-09-25T07:08:16.228Z,85.25
2022-09-25T07:10:49.301Z,85.20
2022-09-25T07:13:17.890Z,84.50
2022-09-25T07:15:53.014Z,84.61
2022-09-25T07:18:28.539Z,84.73
2022-09-25T07:21:02.758Z,84.68
2022-09-25T07:23:33.446Z,84.07
2022-09-25T07:26:06.707Z,84.89
2022-09-25T07:28:34.987Z,85.05
2022-09-25T07:31:11.919Z,84.19
2022-09-25T07:33:39.665Z,83.98
2022-09-25T07:36:08.329Z,84.33
2022-09-25T07:38:37.633Z,83.98
2022-09-25T07:41:06.325Z,84.35
2022-09-25T07:43:34.655Z,84.01
2022-09-25T07:46:02.637Z,85.66
2022-09-25T07:48:31.602Z,87.52
2022-09-25T07:51:01.208Z,86.43
2022-09-25T07:53:28.926Z,85.50
2022-09-25T07:56:06.128Z,84.69
2022-09-25T07:58:35.672Z,84.14
2022-09-25T08:01:05.957Z,83.63
2022-09-25T08:03:34.671Z,83.69
2022-09-25T08:06:04.116Z,84.35
2022-09-25T08:08:33.990Z,83.16
2022-09-25T08:11:07.951Z,82.14
2022-09-25T08:13:39.147Z,84.27
2022-09-25T08:16:12.017Z,84.16
2022-09-25T08:18:41.405Z,84.57
2022-09-25T08:21:10.192Z,83.26
2022-09-25T08:23:38.089Z,83.42
2022-09-25T08:26:07.724Z,84.29
2022-09-25T08:28:35.916Z,85.32
2022-09-25T08:31:04.762Z,84.71
2022-09-25T08:33:34.429Z,84.80
2022-09-25T08:36:04.360Z,84.03
2022-09-25T08:38:33.146Z,83.38
2022-09-25T08:41:05.911Z,83.60
2022-09-25T08:43:38.655Z,82.83
2022-09-25T08:46:35.731Z,83.22
2022-09-25T08:49:05.921Z,83.11
2022-09-25T08:51:37.092Z,82.97
2022-09-25T08:54:06.343Z,82.74
2022-09-25T08:56:36.387Z,82.29
2022-09-25T08:59:11.389Z,82.25
2022-09-25T09:01:46.643Z,82.28
2022-09-25T09:04:20.347Z,81.20
2022-09-25T09:07:24.625Z,82.14
2022-09-25T09:09:45.331Z,79.66
2022-09-25T09:12:15.861Z,80.51
2022-09-25T09:14:48.362Z,78.94
2022-09-25T09:17:19.734Z,79.06
2022-09-25T09:19:50.084Z,77.82
2022-09-25T09:22:24.021Z,77.74
2022-09-25T09:24:56.356Z,77.37
2022-09-25T09:27:36.183Z,80.34
2022-09-25T09:30:14.197Z,84.01
2022-09-25T09:32:56.296Z,81.27
2022-09-25T09:35:33.833Z,78.91
2022-09-25T09:38:11.903Z,79.27
2022-09-25T09:40:55.605Z,79.99
2022-09-25T09:43:38.877Z,78.91
2022-09-25T09:46:18.019Z,78.51
2022-09-25T09:48:56.587Z,77.13
2022-09-25T09:51:29.694Z,79.99
2022-09-25T09:54:04.852Z,80.06
2022-09-25T09:56:35.676Z,78.60
2022-09-25T09:59:08.019Z,77.98
2022-09-25T10:01:42.024Z,77.60
2022-09-25T10:04:12.854Z,77.23
2022-09-25T10:06:48.346Z,76.82
2022-09-25T10:09:17.694Z,76.19
2022-09-25T10:11:48.177Z,76.17
2022-09-25T10:14:20.944Z,76.88
2022-09-25T10:16:51.763Z,78.21
2022-09-25T10:19:22.373Z,77.56
2022-09-25T10:21:54.690Z,79.24
2022-09-25T10:24:53.436Z,79.83
2022-09-25T10:27:27.457Z,79.33
2022-09-25T10:30:15.523Z,77.55
2022-09-25T10:32:52.366Z,78.73
2022-09-25T10:35:28.066Z,80.82
2022-09-25T10:37:57.453Z,79.47
2022-09-25T10:40:31.844Z,79.42
2022-09-25T10:43:20.648Z,82.69
2022-09-25T10:45:49.666Z,81.93
2022-09-25T10:48:45.327Z,81.49
2022-09-25T10:51:18.317Z,81.98
2022-09-25T10:53:46.709Z,81.85
2022-09-25T10:56:20.418Z,81.27
2022-09-25T10:58:53.944Z,83.22
2022-09-25T11:01:23.246Z,81.99
2022-09-25T11:03:56.553Z,81.12
2022-09-25T11:06:27.129Z,79.79
2022-09-25T11:09:10.226Z,80.17
2022-09-25T11:11:41.080Z,80.39
2022-09-25T11:14:21.001Z,79.93
2022-09-25T11:16:52.584Z,78.87
2022-09-25T11:19:27.026Z,82.45
2022-09-25T11:22:07.734Z,80.35
2022-09-25T11:24:54.878Z,79.89
2022-09-25T11:27:35.388Z,78.18
2022-09-25T11:30:06.944Z,77.03
2022-09-25T11:32:50.196Z,76.50
2022-09-25T11:35:33.077Z,76.51
2022-09-25T11:38:09.898Z,77.18
2022-09-25T11:41:07.780Z,78.49
2022-09-25T11:43:46.905Z,75.99
2022-09-25T11:46:23.146Z,74.73
2022-09-25T11:49:00.803Z,75.10
2022-09-25T11:51:46.724Z,75.79
2022-09-25T11:54:33.930Z,73.62
2022-09-25T11:57:09.488Z,74.54
2022-09-25T11:59:48.987Z,72.27
2022-09-25T12:02:25.760Z,74.40
2022-09-25T12:05:16.267Z,72.97
2022-09-25T12:08:19.081Z,71.80
2022-09-25T12:10:58.196Z,71.40
2022-09-25T12:13:34.436Z,70.91
2022-09-25T12:16:13.165Z,74.00
2022-09-25T12:19:02.334Z,74.46
2022-09-25T12:21:36.115Z,74.56
2022-09-25T12:24:12.485Z,74.10
2022-09-25T12:26:52.558Z,75.15
2022-09-25T12:29:34.013Z,74.74
2022-09-25T12:32:08.816Z,75.18
2022-09-25T12:34:56.613Z,73.51
2022-09-25T12:37:35.600Z,72.66
2022-09-25T12:40:07.101Z,72.80
2022-09-25T12:42:44.101Z,71.75
2022-09-25T12:45:19.154Z,71.85
2022-09-25T12:48:00.443Z,70.88
2022-09-25T12:50:32.923Z,72.00
2022-09-25T12:53:06.523Z,72.19
2022-09-25T12:55:40.079Z,71.88
2022-09-25T12:58:21.203Z,72.80
2022-09-25T13:00:54.868Z,73.37
2022-09-25T13:03:29.059Z,72.85
2022-09-25T13:06:08.354Z,69.62
2022-09-25T13:08:42.691Z,68.46
2022-09-25T13:11:17.423Z,68.53
2022-09-25T13:13:50.563Z,68.47
2022-09-25T13:16:22.118Z,70.23
2022-09-25T13:19:11.425Z,70.76
2022-09-25T13:21:41.667Z,66.76
2022-09-25T13:24:14.478Z,68.12
2022-09-25T13:26:47.115Z,67.64
2022-09-25T13:29:23.990Z,67.11
2022-09-25T13:31:53.482Z,69.37
2022-09-25T13:34:24.430Z,67.03
2022-09-25T13:36:55.115Z,67.46
2022-09-25T13:39:46.303Z,67.52
2022-09-25T13:42:22.393Z,67.88
2022-09-25T13:45:07.801Z,66.96
2022-09-25T13:48:00.606Z,67.94
2022-09-25T13:50:34.026Z,68.72
2022-09-25T13:53:24.065Z,68.29
2022-09-25T13:56:18.562Z,69.94
2022-09-25T13:59:21.023Z,70.77
2022-09-25T14:01:53.935Z,67.70
2022-09-25T14:04:28.931Z,68.06
2022-09-25T14:07:06.625Z,66.93
2022-09-25T14:09:35.672Z,65.56
2022-09-25T14:12:10.031Z,68.53
2022-09-25T14:14:45.374Z,69.39
2022-09-25T14:17:17.426Z,69.11
2022-09-25T14:19:48.969Z,67.27
2022-09-25T14:22:24.723Z,68.31
2022-09-25T14:24:53.215Z,68.71
2022-09-25T14:27:26.328Z,68.48
2022-09-25T14:30:03.570Z,68.86
2022-09-25T14:33:00.959Z,69.47
2022-09-25T14:35:37.037Z,68.13
2022-09-25T14:38:45.116Z,66.19
2022-09-25T14:41:43.963Z,66.24
2022-09-25T14:44:30.752Z,65.27
2022-09-25T14:46:58.962Z,66.72
2022-09-25T14:49:30.951Z,67.31
2022-09-25T14:52:03.020Z,67.91
2022-09-25T14:54:36.431Z,66.42
2022-09-25T14:57:05.998Z,66.71
2022-09-25T14:59:40.217Z,67.64
2022-09-25T15:02:18.503Z,66.90
2022-09-25T15:04:47.642Z,66.39
2022-09-25T15:07:17.458Z,67.44
2022-09-25T15:09:48.428Z,67.31
2022-09-25T15:12:20.316Z,66.22
2022-09-25T15:15:02.293Z,65.52
2022-09-25T15:17:31.519Z,65.77
2022-09-25T15:20:03.665Z,65.79
2022-09-25T15:22:34.329Z,67.08
2022-09-25T15:25:05.436Z,68.69
2022-09-25T15:27:33.682Z,69.41
2022-09-25T15:30:01.960Z,72.76
2022-09-25T15:32:38.227Z,71.06
2022-09-25T15:35:21.987Z,71.20
2022-09-25T15:37:50.199Z,71.74
2022-09-25T15:40:28.321Z,71.81
2022-09-25T15:42:57.104Z,72.23
2022-09-25T15:45:46.130Z,71.11
2022-09-25T15:48:22.131Z,71.73
2022-09-25T15:50:52.910Z,73.22
2022-09-25T15:53:24.910Z,71.85
2022-09-25T15:56:05.106Z,71.54
2022-09-25T15:58:46.098Z,69.35
2022-09-25T16:01:35.948Z,71.10
2022-09-25T16:04:25.630Z,71.35
2022-09-25T16:06:55.161Z,70.67
2022-09-25T16:09:32.955Z,70.79
2022-09-25T16:12:23.130Z,72.60
2022-09-25T16:14:51.948Z,73.11
2022-09-25T16:17:25.719Z,74.66
2022-09-25T16:20:01.732Z,73.00
2022-09-25T16:22:38.534Z,74.73
2022-09-25T16:25:17.028Z,75.04
2022-09-25T16:27:46.935Z,75.29
2022-09-25T16:30:19.651Z,73.53
2022-09-25T16:32:49.967Z,73.34
2022-09-25T16:35:25.000Z,72.81
2022-09-25T16:37:55.072Z,72.68
2022-09-25T16:40:28.775Z,73.56
2022-09-25T16:42:58.869Z,73.42
2022-09-25T16:45:29.724Z,72.99
2022-09-25T16:47:58.870Z,73.63
2022-09-25T16:50:29.214Z,75.02
2022-09-25T16:52:58.444Z,74.88
2022-09-25T16:55:29.252Z,75.50
2022-09-25T16:58:03.492Z,75.83
2022-09-25T17:00:31.673Z,76.06
2022-09-25T17:02:59.683Z,78.83
2022-09-25T17:05:30.508Z,77.95
2022-09-25T17:08:15.695Z,80.52
2022-09-25T17:10:43.603Z,80.33
2022-09-25T17:13:14.661Z,80.02
2022-09-25T17:15:44.225Z,79.38
2022-09-25T17:18:19.484Z,81.28
2022-09-25T17:20:47.708Z,81.84
2022-09-25T17:23:19.232Z,79.72
2022-09-25T17:25:50.701Z,78.87
2022-09-25T17:28:18.811Z,79.72
2022-09-25T17:30:48.825Z,80.00
2022-09-25T17:33:19.587Z,79.08
2022-09-25T17:35:51.634Z,78.90
2022-09-25T17:38:20.882Z,79.08
2022-09-25T17:40:52.235Z,79.60
2022-09-25T17:43:22.736Z,78.99
2022-09-25T17:45:54.566Z,79.35
2022-09-25T17:48:27.203Z,79.90
2022-09-25T17:50:57.046Z,79.49
2022-09-25T17:53:28.458Z,79.50
2022-09-25T17:55:56.234Z,79.63
2022-09-25T17:58:25.628Z,78.84
2022-09-25T18:00:54.825Z,79.61
2022-09-25T18:03:22.955Z,78.62
2022-09-25T18:05:50.860Z,78.48
2022-09-25T18:08:19.460Z,78.33
2022-09-25T18:10:49.815Z,78.57
2022-09-25T18:13:20.153Z,79.16
2022-09-25T18:15:49.932Z,80.63
2022-09-25T18:18:20.263Z,80.31
2022-09-25T18:21:09.596Z,81.83
2022-09-25T18:23:38.633Z,80.96
2022-09-25T18:26:10.021Z,83.22
2022-09-25T18:28:37.777Z,82.51
2022-09-25T18:31:05.893Z,82.48
2022-09-25T18:33:33.660Z,81.43
2022-09-25T18:36:01.483Z,83.20
2022-09-25T18:38:29.221Z,82.46
2022-09-25T18:40:57.092Z,82.28
2022-09-25T18:43:26.277Z,82.46
2022-09-25T18:45:54.316Z,82.41
2022-09-25T18:48:22.184Z,82.10
2022-09-25T18:50:50.691Z,81.22
2022-09-25T18:53:19.038Z,81.66
2022-09-25T18:55:46.781Z,81.17
2022-09-25T18:58:14.709Z,81.78
2022-09-25T19:00:43.817Z,83.62
2022-09-25T19:03:11.525Z,83.38
2022-09-25T19:05:39.340Z,82.38
2022-09-25T19:08:07.494Z,82.57
2022-09-25T19:10:35.290Z,81.97
2022-09-25T19:13:03.034Z,81.66
2022-09-25T19:15:31.091Z,80.78
2022-09-25T19:18:00.301Z,81.39
2022-09-25T19:20:28.301Z,81.07
2022-09-25T19:22:56.026Z,82.03
2022-09-25T19:25:23.781Z,82.47
2022-09-25T19:27:51.461Z,82.03
2022-09-25T19:30:19.196Z,81.47
2022-09-25T19:32:46.872Z,81.93
2022-09-25T19:35:16.364Z,81.79
2022-09-25T19:37:44.352Z,81.93
2022-09-25T19:40:29.946Z,87.07
2022-09-25T19:42:58.435Z,85.84
2022-09-25T19:45:26.263Z,85.44
2022-09-25T19:47:53.927Z,85.32
2022-09-25T19:50:23.106Z,83.59
2022-09-25T19:52:51.476Z,84.25
2022-09-25T19:55:19.736Z,82.98
2022-09-25T19:57:47.810Z,82.16
2022-09-25T20:00:17.211Z,83.50
2022-09-25T20:02:46.510Z,83.03
2022-09-25T20:05:14.532Z,84.57
2022-09-25T20:07:43.582Z,85.17
2022-09-25T20:10:11.379Z,86.22
2022-09-25T20:12:39.185Z,85.43
2022-09-25T20:15:08.095Z,84.87
2022-09-25T20:17:35.832Z,84.92
2022-09-25T20:20:03.965Z,84.09
2022-09-25T20:22:32.433Z,83.73
2022-09-25T20:25:01.501Z,83.38
2022-09-25T20:27:29.190Z,83.10
2022-09-25T20:29:59.535Z,82.96
2022-09-25T20:32:27.223Z,82.91
2022-09-25T20:34:54.971Z,83.56
2022-09-25T20:37:23.530Z,83.49
2022-09-25T20:39:51.531Z,83.93
2022-09-25T20:42:21.324Z,83.35
2022-09-25T20:44:49.407Z,82.73
2022-09-25T20:47:18.348Z,82.84
2022-09-25T20:49:46.216Z,84.89
2022-09-25T20:52:14.498Z,83.85
2022-09-25T20:54:42.805Z,85.10
2022-09-25T20:57:12.918Z,84.45
2022-09-25T20:59:42.063Z,83.18
2022-09-25T21:02:10.191Z,84.43
2022-09-25T21:04:40.232Z,83.99
2022-09-25T21:07:10.903Z,83.83
2022-09-25T21:09:40.812Z,83.42
2022-09-25T21:12:08.474Z,83.15
2022-09-25T21:14:37.786Z,82.71
2022-09-25T21:17:07.005Z,82.75
2022-09-25T21:19:34.931Z,82.22
2022-09-25T21:22:02.626Z,83.58
2022-09-25T21:24:32.465Z,82.59
2022-09-25T21:27:00.229Z,82.60
2022-09-25T21:29:28.133Z,83.46
2022-09-25T21:31:56.453Z,82.29
2022-09-25T21:34:26.411Z,82.21
2022-09-25T21:36:54.137Z,80.89
2022-09-25T21:39:21.807Z,80.13
2022-09-25T21:41:50.317Z,80.42
2022-09-25T21:44:21.269Z,80.53
2022-09-25T21:46:48.951Z,80.37
2022-09-25T21:49:19.079Z,80.64
2022-09-25T21:51:49.451Z,79.89
2022-09-25T21:54:17.966Z,79.87
2022-09-25T21:56:48.555Z,80.04
2022-09-25T21:59:16.562Z,80.38
2022-09-25T22:01:44.446Z,80.18
2022-09-25T22:04:13.679Z,79.97
2022-09-25T22:06:43.649Z,80.17
2022-09-25T22:09:16.658Z,79.88
2022-09-25T22:11:44.918Z,79.52
2022-09-25T22:14:16.706Z,80.01
2022-09-25T22:16:46.430Z,81.70
2022-09-25T22:19:16.413Z,81.97
2022-09-25T22:21:45.969Z,80.64
2022-09-25T22:24:15.232Z,80.16
2022-09-25T22:26:44.998Z,80.95
2022-09-25T22:29:13.594Z,81.86
2022-09-25T22:31:43.149Z,81.87
2022-09-25T22:34:17.708Z,80.71
2022-09-25T22:36:45.624Z,80.76
2022-09-25T22:39:16.863Z,80.97
2022-09-25T22:41:45.186Z,81.62
2022-09-25T22:44:12.900Z,80.85
2022-09-25T22:46:40.620Z,80.68
2022-09-25T22:49:08.508Z,80.34
2022-09-25T22:51:36.300Z,80.28
2022-09-25T22:54:04.574Z,80.74
2022-09-25T22:56:35.427Z,80.67
2022-09-25T22:59:06.958Z,81.36
2022-09-25T23:01:39.563Z,81.25
2022-09-25T23:04:10.989Z,82.07
2022-09-25T23:06:41.451Z,82.95
2022-09-25T23:09:16.047Z,83.56
2022-09-25T23:11:45.544Z,83.92
2022-09-25T23:14:16.874Z,83.65
2022-09-25T23:16:46.370Z,83.35
2022-09-25T23:19:15.383Z,82.51
2022-09-25T23:21:44.357Z,82.42
2022-09-25T23:24:14.269Z,82.24
2022-09-25T23:26:42.503Z,82.46
2022-09-25T23:29:13.023Z,82.84
2022-09-25T23:31:41.277Z,82.40
2022-09-25T23:34:09.404Z,81.66
2022-09-25T23:36:39.934Z,81.70
2022-09-25T23:39:09.352Z,82.09
2022-09-25T23:41:39.182Z,83.38
2022-09-25T23:44:10.151Z,83.00
2022-09-25T23:46:40.910Z,82.16
2022-09-25T23:49:10.136Z,81.80
2022-09-25T23:51:38.522Z,83.63
2022-09-25T23:54:06.901Z,83.41
2022-09-25T23:56:35.665Z,82.45
2022-09-25T23:59:05.436Z,82.07
